Time;durP1;ratioP1;P1;durP2;ratioP2;P2;SDS_P1;SDS_P2;PMS_P1;PMS_P2;Temp;Humidity;BMP_temperature;BMP_pressure;BME280_temperature;BME280_humidity;BME280_pressure;Samples;Min_cycle;Max_cycle;Signal;HPM_P1;HPM_P2
2021/04/06 00:01:59;;;;;;;2.20;2.00;;;1.80;99.90;;;;;;5080044;28;20226;-81
2021/04/06 00:04:31;;;;;;;1.77;1.38;;;1.90;99.90;;;;;;5087283;28;20205;-80
2021/04/06 00:07:02;;;;;;;3.33;1.83;;;1.80;99.90;;;;;;5086866;28;20198;-83
2021/04/06 00:09:31;;;;;;;2.38;2.03;;;1.90;99.90;;;;;;5087263;28;20215;-78
2021/04/06 00:12:01;;;;;;;2.10;1.80;;;1.90;99.90;;;;;;5071560;28;20237;-83
2021/04/06 00:14:30;;;;;;;2.13;1.92;;;1.80;99.90;;;;;;5085647;28;20214;-81
2021/04/06 00:16:59;;;;;;;1.85;1.67;;;1.80;99.90;;;;;;5088041;28;20247;-80
2021/04/06 00:19:28;;;;;;;5.30;2.20;;;1.70;99.90;;;;;;5085051;28;20201;-81
2021/04/06 00:21:58;;;;;;;3.38;2.65;;;1.80;99.90;;;;;;5087210;28;20210;-82
2021/04/06 00:24:28;;;;;;;1.88;1.77;;;1.80;99.90;;;;;;5084448;28;20201;-82
2021/04/06 00:27:07;;;;;;;2.10;1.90;;;1.80;99.90;;;;;;5088750;28;20190;-82
2021/04/06 00:29:39;;;;;;;2.67;1.70;;;1.80;99.90;;;;;;5087121;28;20209;-82
2021/04/06 00:32:08;;;;;;;2.42;1.83;;;1.90;99.90;;;;;;5088702;28;20199;-81
2021/04/06 00:34:37;;;;;;;3.35;2.28;;;1.90;99.90;;;;;;5088220;28;20209;-81
2021/04/06 00:37:09;;;;;;;3.58;1.67;;;1.90;99.90;;;;;;5079972;28;20693;-81
2021/04/06 00:39:40;;;;;;;1.92;1.83;;;1.80;99.90;;;;;;5079500;28;20221;-82
2021/04/06 00:42:09;;;;;;;1.80;1.70;;;1.80;99.90;;;;;;5080021;28;20217;-82
2021/04/06 00:44:41;;;;;;;2.30;2.05;;;1.80;99.90;;;;;;5062425;28;20191;-82
2021/04/06 00:47:11;;;;;;;2.10;2.00;;;1.80;99.90;;;;;;5083665;28;20550;-83
2021/04/06 00:49:41;;;;;;;2.53;2.25;;;2.00;99.90;;;;;;5078218;28;20210;-81
2021/04/06 00:52:11;;;;;;;2.92;2.20;;;2.10;99.90;;;;;;5077515;28;20195;-82
2021/04/06 00:54:40;;;;;;;5.22;1.70;;;2.00;99.90;;;;;;5078898;28;20215;-81
2021/04/06 00:57:07;;;;;;;3.95;2.00;;;2.00;99.90;;;;;;5078786;28;20187;-82
2021/04/06 00:59:34;;;;;;;4.53;2.33;;;2.00;99.90;;;;;;5076648;28;20210;-82
2021/04/06 01:02:03;;;;;;;4.50;2.35;;;1.90;99.90;;;;;;5078733;28;20291;-82
2021/04/06 01:04:35;;;;;;;3.80;1.88;;;1.70;99.90;;;;;;5065060;28;20256;-82
2021/04/06 01:07:07;;;;;;;3.17;2.58;;;1.50;99.90;;;;;;5058036;28;20261;-81
2021/04/06 01:09:36;;;;;;;2.20;2.00;;;1.60;99.90;;;;;;5077291;28;20261;-82
2021/04/06 01:12:05;;;;;;;2.40;2.20;;;1.50;99.90;;;;;;5076374;28;20225;-83
2021/04/06 01:14:33;;;;;;;1.58;1.55;;;1.60;99.90;;;;;;5079168;28;20229;-79
2021/04/06 01:17:02;;;;;;;2.07;1.37;;;1.50;99.90;;;;;;5088881;28;20194;-80
2021/04/06 01:19:30;;;;;;;1.45;1.35;;;1.50;99.90;;;;;;5090577;28;20202;-82
2021/04/06 01:21:58;;;;;;;1.40;1.23;;;1.20;99.90;;;;;;5089242;28;20214;-83
2021/04/06 01:24:27;;;;;;;2.40;2.20;;;1.10;99.90;;;;;;5087421;28;20202;-81
2021/04/06 01:26:55;;;;;;;1.60;1.50;;;1.10;99.90;;;;;;5086935;28;20229;-83
2021/04/06 01:29:22;;;;;;;2.20;1.10;;;1.20;99.90;;;;;;5089064;28;20199;-79
2021/04/06 01:31:50;;;;;;;6.82;2.08;;;1.20;99.90;;;;;;5087543;28;20238;-82
2021/04/06 01:34:18;;;;;;;1.27;1.15;;;1.20;99.90;;;;;;5086802;28;20561;-82
2021/04/06 01:36:46;;;;;;;2.13;0.80;;;1.20;99.90;;;;;;5088271;28;20641;-82
2021/04/06 01:39:14;;;;;;;1.13;1.10;;;1.10;99.90;;;;;;5088594;28;20202;-81
2021/04/06 01:41:44;;;;;;;1.65;1.05;;;1.00;99.90;;;;;;5079863;28;20218;-79
2021/04/06 01:44:11;;;;;;;1.17;0.75;;;1.00;99.90;;;;;;5080311;28;20213;-80
2021/04/06 01:46:41;;;;;;;1.00;0.90;;;1.00;99.90;;;;;;5080274;28;20228;-80
2021/04/06 01:49:09;;;;;;;1.48;1.38;;;1.00;99.90;;;;;;5081189;28;20190;-79
2021/04/06 01:51:35;;;;;;;1.00;1.00;;;1.00;99.90;;;;;;5078812;28;20248;-78
2021/04/06 01:54:04;;;;;;;0.95;0.95;;;0.90;99.90;;;;;;5078607;28;20186;-80
2021/04/06 01:56:34;;;;;;;1.02;1.02;;;0.90;99.90;;;;;;5077675;28;20187;-81
2021/04/06 01:59:04;;;;;;;1.75;0.85;;;0.90;99.90;;;;;;5074710;28;20268;-79
2021/04/06 02:02:14;;;;;;;1.20;1.15;;;0.90;99.90;;;;;;5056337;28;20242;-80
2021/04/06 02:04:44;;;;;;;1.47;1.20;;;1.00;99.90;;;;;;5072628;28;20877;-80
2021/04/06 02:07:14;;;;;;;5.77;1.67;;;1.10;99.90;;;;;;5077804;28;20583;-83
2021/04/06 02:09:41;;;;;;;0.68;0.68;;;1.10;99.90;;;;;;5076742;28;20208;-78
2021/04/06 02:12:09;;;;;;;1.23;1.10;;;0.90;99.90;;;;;;5059254;28;20261;-81
2021/04/06 02:14:37;;;;;;;2.60;1.10;;;0.90;99.90;;;;;;5077595;28;20237;-81
2021/04/06 02:17:06;;;;;;;4.18;1.52;;;0.70;99.90;;;;;;5076975;28;20198;-80
2021/04/06 02:19:34;;;;;;;3.17;1.40;;;0.60;99.90;;;;;;5077087;28;20202;-78
2021/04/06 02:22:03;;;;;;;1.48;1.38;;;0.60;99.90;;;;;;5077456;28;20294;-82
2021/04/06 02:24:35;;;;;;;2.13;1.92;;;0.50;99.90;;;;;;5076619;28;20258;-80
2021/04/06 02:27:05;;;;;;;4.27;1.67;;;0.50;99.90;;;;;;5077064;28;20203;-85
2021/04/06 02:29:38;;;;;;;3.77;2.37;;;0.40;99.90;;;;;;5076997;28;20195;-81
2021/04/06 02:32:08;;;;;;;3.47;2.80;;;0.40;99.90;;;;;;5081306;28;20229;-80
2021/04/06 02:34:37;;;;;;;3.10;2.90;;;0.30;99.90;;;;;;5080438;28;20674;-79
2021/04/06 02:37:06;;;;;;;4.37;3.33;;;0.40;99.90;;;;;;5084465;28;20561;-80
2021/04/06 02:39:39;;;;;;;4.65;3.65;;;0.20;99.90;;;;;;5088954;28;20178;-79
2021/04/06 02:42:26;;;;;;;4.10;3.70;;;0.20;99.90;;;;;;5071334;22;20395;-77
2021/04/06 02:45:08;;;;;;;5.87;4.90;;;0.10;99.90;;;;;;5003990;28;20199;-77
2021/04/06 02:47:37;;;;;;;4.07;3.77;;;0.30;99.90;;;;;;5002373;28;20200;-78
2021/04/06 02:50:06;;;;;;;4.72;4.32;;;0.30;99.90;;;;;;5053744;28;20670;-79
2021/04/06 02:52:33;;;;;;;7.03;4.10;;;0.10;99.90;;;;;;5055318;28;20257;-78
2021/04/06 02:55:00;;;;;;;6.05;5.45;;;0.10;99.90;;;;;;5031453;28;20216;-78
2021/04/06 02:57:27;;;;;;;4.38;3.97;;;0.10;99.90;;;;;;5051973;28;20219;-78
2021/04/06 02:59:53;;;;;;;5.13;4.23;;;0.10;99.90;;;;;;5046576;28;20276;-78
2021/04/06 03:02:21;;;;;;;4.93;4.40;;;0.20;99.90;;;;;;5054180;28;20242;-78
2021/04/06 03:04:49;;;;;;;6.50;4.30;;;0.10;99.90;;;;;;5055883;28;20293;-78
2021/04/06 03:07:21;;;;;;;4.78;4.10;;;0.20;99.90;;;;;;5045719;28;20204;-77
2021/04/06 03:09:53;;;;;;;7.00;4.93;;;0.20;99.90;;;;;;5044336;28;20207;-77
2021/04/06 03:12:20;;;;;;;4.20;3.80;;;0.10;99.90;;;;;;5044280;28;20313;-78
2021/04/06 03:14:48;;;;;;;4.25;3.85;;;0.10;99.90;;;;;;5045176;28;20229;-77
2021/04/06 03:17:16;;;;;;;4.07;3.72;;;0.10;99.90;;;;;;5029165;28;20203;-77
2021/04/06 03:19:44;;;;;;;5.30;4.57;;;0.10;99.90;;;;;;5045723;28;20208;-77
2021/04/06 03:22:12;;;;;;;6.00;4.47;;;0.10;99.90;;;;;;5046213;28;20215;-80
2021/04/06 03:24:40;;;;;;;8.07;5.93;;;0.00;99.90;;;;;;5039393;28;20199;-77
2021/04/06 03:27:08;;;;;;;5.70;4.10;;;0.10;99.90;;;;;;5021806;28;20215;-81
2021/04/06 03:29:35;;;;;;;5.10;4.47;;;0.10;99.90;;;;;;5014588;28;20273;-78
2021/04/06 03:32:04;;;;;;;9.05;4.43;;;0.00;99.90;;;;;;5049936;28;20701;-78
2021/04/06 03:34:32;;;;;;;5.15;4.40;;;0.00;99.90;;;;;;5039304;28;20737;-78
2021/04/06 03:37:02;;;;;;;4.95;3.83;;;0.10;99.90;;;;;;5017277;28;20211;-78
2021/04/06 03:39:31;;;;;;;6.85;4.63;;;0.10;99.90;;;;;;5043951;28;20188;-77
2021/04/06 03:41:58;;;;;;;3.78;3.50;;;0.20;99.90;;;;;;5041386;28;20219;-80
2021/04/06 03:44:29;;;;;;;4.25;3.83;;;0.40;99.90;;;;;;5044824;28;20207;-78
2021/04/06 03:46:57;;;;;;;6.73;3.90;;;0.30;99.90;;;;;;5035273;28;20203;-78
2021/04/06 03:49:26;;;;;;;3.95;3.53;;;0.40;99.90;;;;;;5038819;28;20195;-78
2021/04/06 03:51:55;;;;;;;5.80;4.35;;;0.50;99.90;;;;;;5052451;28;20219;-79
2021/04/06 03:54:30;;;;;;;5.32;4.63;;;0.50;99.90;;;;;;5020837;28;20204;-81
2021/04/06 03:56:58;;;;;;;4.40;3.53;;;0.60;99.90;;;;;;5055563;28;20678;-80
2021/04/06 03:59:27;;;;;;;8.13;4.22;;;0.70;99.90;;;;;;5041762;28;20260;-80
2021/04/06 04:01:54;;;;;;;4.65;4.18;;;0.70;99.90;;;;;;5038493;28;20219;-80
2021/04/06 04:04:21;;;;;;;8.77;3.95;;;0.70;99.90;;;;;;5044199;28;20278;-80
2021/04/06 04:06:48;;;;;;;6.10;3.73;;;0.80;99.90;;;;;;5056555;28;20235;-80
2021/04/06 04:09:14;;;;;;;4.87;3.40;;;0.80;99.90;;;;;;5022730;28;20254;-80
2021/04/06 04:11:42;;;;;;;6.85;3.10;;;0.90;99.90;;;;;;5042431;28;20219;-81
2021/04/06 04:14:09;;;;;;;5.75;3.50;;;0.80;99.90;;;;;;5059549;28;20192;-80
2021/04/06 04:16:38;;;;;;;4.55;3.28;;;0.90;99.90;;;;;;5026745;28;20262;-80
2021/04/06 04:19:05;;;;;;;6.30;3.87;;;0.90;99.90;;;;;;5021153;28;20570;-80
2021/04/06 04:21:31;;;;;;;7.97;3.90;;;0.90;99.90;;;;;;5007610;28;20774;-79
2021/04/06 04:23:58;;;;;;;7.13;3.40;;;1.00;99.90;;;;;;5052763;28;20242;-79
2021/04/06 04:26:25;;;;;;;7.50;3.30;;;0.80;99.90;;;;;;5055728;28;20191;-79
2021/04/06 04:28:52;;;;;;;4.85;4.30;;;0.70;99.90;;;;;;5055902;28;20694;-79
2021/04/06 04:31:19;;;;;;;5.20;3.47;;;0.70;99.90;;;;;;5036094;28;20310;-80
2021/04/06 04:33:46;;;;;;;6.60;4.10;;;0.90;99.90;;;;;;5056073;28;20203;-81
2021/04/06 04:36:13;;;;;;;4.93;3.65;;;1.00;99.90;;;;;;5036190;28;20218;-79
2021/04/06 04:38:39;;;;;;;6.43;3.67;;;1.00;99.90;;;;;;5059462;28;20199;-80
2021/04/06 04:41:06;;;;;;;9.02;4.25;;;1.00;99.90;;;;;;5020681;28;20325;-80
2021/04/06 04:43:33;;;;;;;3.70;3.20;;;1.00;99.90;;;;;;5041305;28;20211;-80
2021/04/06 04:46:00;;;;;;;6.88;4.13;;;1.00;99.90;;;;;;5017641;28;20250;-79
2021/04/06 04:48:27;;;;;;;6.03;3.78;;;1.00;99.90;;;;;;5035471;28;20207;-80
2021/04/06 04:50:54;;;;;;;4.85;3.20;;;1.10;99.90;;;;;;5035597;28;20216;-80
2021/04/06 04:53:21;;;;;;;4.00;3.50;;;1.30;99.90;;;;;;5037841;28;20212;-80
2021/04/06 04:55:48;;;;;;;5.95;3.63;;;1.20;99.90;;;;;;5043966;28;20208;-80
2021/04/06 04:58:14;;;;;;;6.32;4.05;;;1.10;99.90;;;;;;5057679;28;20333;-79
2021/04/06 05:00:41;;;;;;;5.00;3.33;;;1.00;99.90;;;;;;5046321;28;20285;-79
2021/04/06 05:03:09;;;;;;;8.20;3.40;;;1.10;99.90;;;;;;5023373;28;20196;-79
2021/04/06 05:05:36;;;;;;;6.00;3.78;;;1.10;99.90;;;;;;5038455;28;20261;-79
2021/04/06 05:08:03;;;;;;;4.57;3.92;;;1.20;99.90;;;;;;5047378;28;20188;-80
2021/04/06 05:10:30;;;;;;;4.55;3.38;;;1.30;99.90;;;;;;5041891;28;20218;-77
2021/04/06 05:12:57;;;;;;;3.47;3.13;;;1.10;99.90;;;;;;5049241;28;20192;-80
2021/04/06 05:15:24;;;;;;;7.82;3.80;;;1.20;99.90;;;;;;5031813;28;20279;-79
2021/04/06 05:17:51;;;;;;;6.35;3.33;;;1.20;99.90;;;;;;5058729;28;20202;-79
2021/04/06 05:20:18;;;;;;;5.70;3.70;;;1.30;99.90;;;;;;5042670;28;20192;-80
2021/04/06 05:22:45;;;;;;;8.35;3.47;;;1.30;99.90;;;;;;5037310;28;20218;-79
2021/04/06 05:25:15;;;;;;;8.25;3.10;;;1.20;99.90;;;;;;5041150;28;20203;-80
2021/04/06 05:27:42;;;;;;;8.30;3.40;;;1.30;99.90;;;;;;5049252;28;20215;-80
2021/04/06 05:30:10;;;;;;;2.95;2.42;;;1.30;99.90;;;;;;5051015;28;20191;-81
2021/04/06 05:32:37;;;;;;;4.07;3.17;;;1.30;99.90;;;;;;5050144;28;20219;-79
2021/04/06 05:35:05;;;;;;;3.05;2.50;;;1.30;99.90;;;;;;5047360;28;20223;-80
2021/04/06 05:37:32;;;;;;;4.60;3.17;;;1.20;99.90;;;;;;5039632;28;20200;-80
2021/04/06 05:39:59;;;;;;;6.32;4.07;;;1.30;99.90;;;;;;5042611;28;20223;-80
2021/04/06 05:42:26;;;;;;;3.78;2.67;;;1.40;99.90;;;;;;5037590;28;20272;-79
2021/04/06 05:44:53;;;;;;;2.80;2.45;;;1.50;99.90;;;;;;5046023;28;20210;-79
2021/04/06 05:47:32;;;;;;;6.45;2.08;;;1.50;99.90;;;;;;5021830;28;20206;-80
2021/04/06 05:50:01;;;;;;;3.78;1.92;;;1.40;99.90;;;;;;5039081;28;20196;-78
2021/04/06 05:52:29;;;;;;;2.63;2.42;;;1.60;99.90;;;;;;5020534;28;20233;-78
2021/04/06 05:54:57;;;;;;;2.72;2.10;;;1.70;99.90;;;;;;5039037;28;20242;-79
2021/04/06 05:57:24;;;;;;;2.95;2.13;;;1.80;99.90;;;;;;5021444;28;20199;-79
2021/04/06 05:59:51;;;;;;;8.30;2.72;;;1.80;99.90;;;;;;5021157;28;20196;-79
2021/04/06 06:02:18;;;;;;;2.80;2.58;;;1.70;99.90;;;;;;5056528;28;20216;-79
2021/04/06 06:04:45;;;;;;;4.88;2.50;;;1.80;99.90;;;;;;5058690;28;20195;-79
2021/04/06 06:07:12;;;;;;;5.47;1.85;;;1.80;99.90;;;;;;5054439;28;20211;-79
2021/04/06 06:09:40;;;;;;;2.40;2.10;;;1.80;99.90;;;;;;5034590;28;20211;-79
2021/04/06 06:12:09;;;;;;;5.32;3.05;;;1.70;99.90;;;;;;5039389;28;20734;-80
2021/04/06 06:14:38;;;;;;;3.00;2.28;;;1.80;99.90;;;;;;5029128;28;20679;-79
2021/04/06 06:17:17;;;;;;;3.65;2.45;;;1.70;99.90;;;;;;5034918;28;20291;-77
2021/04/06 06:19:46;;;;;;;3.65;2.20;;;1.90;99.90;;;;;;5029167;28;20226;-82
2021/04/06 06:22:16;;;;;;;7.97;3.70;;;2.10;99.90;;;;;;5034624;28;20216;-79
2021/04/06 06:24:45;;;;;;;2.60;2.28;;;2.10;99.90;;;;;;5037234;28;20204;-80
2021/04/06 06:27:34;;;;;;;6.28;3.80;;;2.20;99.90;;;;;;5044659;28;20652;-79
2021/04/06 06:30:23;;;;;;;6.80;3.10;;;2.10;99.90;;;;;;5035355;28;20191;-80
2021/04/06 06:33:14;;;;;;;8.30;4.00;;;2.10;99.90;;;;;;5046932;28;20195;-80
2021/04/06 06:35:42;;;;;;;4.15;3.00;;;2.00;99.90;;;;;;5039114;28;20239;-80
2021/04/06 06:38:17;;;;;;;4.68;3.13;;;1.90;99.90;;;;;;5029172;28;20686;-79
2021/04/06 06:40:44;;;;;;;6.13;3.25;;;1.90;99.90;;;;;;5034265;28;20628;-81
2021/04/06 06:43:13;;;;;;;3.95;2.80;;;1.90;99.90;;;;;;5038955;28;20192;-80
2021/04/06 06:45:41;;;;;;;5.03;3.33;;;1.80;99.90;;;;;;5036134;28;20215;-81
2021/04/06 06:48:09;;;;;;;8.15;3.50;;;1.90;99.90;;;;;;5012629;28;20192;-79
2021/04/06 06:50:47;;;;;;;8.52;3.22;;;1.90;99.90;;;;;;5035062;28;20203;-80
2021/04/06 06:53:14;;;;;;;9.73;3.33;;;1.90;99.90;;;;;;5035698;28;20208;-79
2021/04/06 06:55:40;;;;;;;8.68;3.85;;;2.10;99.90;;;;;;5037405;28;20706;-81
2021/04/06 06:58:07;;;;;;;8.45;3.10;;;1.90;99.90;;;;;;5037936;28;20222;-80
2021/04/06 07:00:35;;;;;;;6.22;3.30;;;2.10;99.90;;;;;;5031761;28;20219;-81
2021/04/06 07:03:14;;;;;;;9.52;3.33;;;2.00;99.90;;;;;;5040060;28;20716;-81
2021/04/06 07:05:42;;;;;;;7.97;4.20;;;2.00;99.90;;;;;;5037639;28;20208;-80
2021/04/06 07:08:09;;;;;;;11.45;4.57;;;2.10;99.90;;;;;;5056648;28;20208;-80
2021/04/06 07:10:38;;;;;;;6.97;3.67;;;2.40;99.90;;;;;;5049665;28;20196;-80
2021/04/06 07:13:10;;;;;;;5.63;3.25;;;2.20;99.90;;;;;;5036833;28;20200;-79
2021/04/06 07:15:39;;;;;;;8.25;3.75;;;2.60;99.90;;;;;;5032194;28;20311;-80
2021/04/06 07:18:09;;;;;;;9.85;4.30;;;2.70;99.90;;;;;;5023920;28;20208;-81
2021/04/06 07:20:39;;;;;;;8.23;3.88;;;2.80;99.90;;;;;;5050317;28;20292;-80
2021/04/06 07:23:09;;;;;;;3.30;2.88;;;2.60;99.90;;;;;;5036242;28;20196;-82
2021/04/06 07:25:37;;;;;;;10.18;3.33;;;2.70;99.90;;;;;;5041287;28;20196;-80
2021/04/06 07:28:04;;;;;;;15.50;4.47;;;2.60;99.90;;;;;;5025239;28;20196;-80
2021/04/06 07:30:32;;;;;;;8.23;3.35;;;2.60;99.90;;;;;;5022305;28;20231;-79
2021/04/06 07:33:01;;;;;;;7.55;3.17;;;2.70;99.90;;;;;;5035879;28;20192;-80
2021/04/06 07:35:28;;;;;;;7.55;3.28;;;2.70;99.90;;;;;;5032339;28;20231;-80
2021/04/06 07:37:55;;;;;;;10.55;3.55;;;2.70;99.90;;;;;;5063949;28;20207;-79
2021/04/06 07:40:24;;;;;;;9.10;3.78;;;3.10;99.90;;;;;;5061534;28;20227;-80
2021/04/06 07:42:52;;;;;;;5.20;3.08;;;3.10;99.90;;;;;;5056329;28;20228;-80
2021/04/06 07:45:44;;;;;;;9.13;4.03;;;3.00;99.90;;;;;;5028858;28;20224;-78
2021/04/06 07:48:13;;;;;;;9.50;3.35;;;3.20;99.90;;;;;;5023185;28;20260;-83
2021/04/06 07:50:42;;;;;;;13.35;3.78;;;3.30;99.90;;;;;;5056053;28;20252;-80
2021/04/06 07:53:27;;;;;;;15.05;4.15;;;3.50;99.90;;;;;;5045840;28;20222;-80
2021/04/06 07:55:55;;;;;;;12.90;3.20;;;3.60;99.90;;;;;;5036940;28;20291;-81
2021/04/06 07:58:48;;;;;;;8.88;4.32;;;3.60;99.90;;;;;;5041116;28;20195;-79
2021/04/06 08:01:17;;;;;;;9.95;3.58;;;3.40;99.90;;;;;;5038609;28;20216;-80
2021/04/06 08:04:05;;;;;;;9.40;3.38;;;3.40;99.90;;;;;;5038769;28;20223;-80
2021/04/06 08:06:44;;;;;;;14.85;3.97;;;3.40;99.90;;;;;;5048471;28;20199;-80
2021/04/06 08:09:36;;;;;;;10.98;4.18;;;3.40;99.90;;;;;;5043251;28;20215;-77
2021/04/06 08:12:05;;;;;;;15.93;6.25;;;3.30;99.90;;;;;;5037533;28;20219;-80
2021/04/06 08:14:34;;;;;;;18.90;9.50;;;3.20;99.90;;;;;;5056049;28;20200;-80
2021/04/06 08:17:38;;;;;;;10.10;4.57;;;3.30;99.90;;;;;;5039992;28;20262;-78
2021/04/06 08:20:08;;;;;;;6.57;4.93;;;3.50;99.90;;;;;;5027700;28;20249;-79
2021/04/06 08:22:47;;;;;;;14.63;5.00;;;3.20;99.90;;;;;;5035124;28;20223;-79
2021/04/06 08:25:37;;;;;;;24.63;14.27;;;3.20;99.90;;;;;;5031979;28;20275;-82
2021/04/06 08:28:23;;;;;;;11.65;6.15;;;3.40;99.90;;;;;;5037510;28;20188;-83
2021/04/06 08:30:50;;;;;;;7.90;3.08;;;3.30;99.90;;;;;;5028359;28;20228;-82
2021/04/06 08:33:27;;;;;;;7.57;3.28;;;3.10;99.90;;;;;;5034824;28;20254;-83
2021/04/06 08:36:07;;;;;;;6.50;2.47;;;3.10;99.90;;;;;;5034167;28;20207;-80
2021/04/06 08:38:46;;;;;;;10.85;4.28;;;3.20;99.90;;;;;;5036812;28;20191;-81
2021/04/06 08:41:31;;;;;;;11.35;5.40;;;3.40;99.90;;;;;;5058217;22;20345;-81
2021/04/06 08:44:01;;;;;;;11.05;5.07;;;3.80;99.90;;;;;;5055577;28;20214;-80
2021/04/06 08:46:46;;;;;;;7.32;2.90;;;4.20;99.90;;;;;;5058048;28;20199;-81
2021/04/06 08:49:15;;;;;;;7.75;4.30;;;4.10;99.90;;;;;;5062491;28;20282;-82
2021/04/06 08:51:45;;;;;;;8.27;3.92;;;4.00;99.90;;;;;;5048534;28;20246;-81
2021/04/06 08:54:15;;;;;;;10.57;3.53;;;4.00;99.90;;;;;;5077590;28;20195;-81
2021/04/06 08:56:44;;;;;;;9.90;4.20;;;3.90;99.90;;;;;;5080144;28;20580;-82
2021/04/06 08:59:16;;;;;;;5.30;2.40;;;4.00;99.90;;;;;;5079721;28;20243;-82
2021/04/06 09:01:44;;;;;;;9.52;3.55;;;4.20;99.90;;;;;;5079274;28;20238;-82
2021/04/06 09:04:13;;;;;;;8.55;3.42;;;4.10;99.90;;;;;;5077740;28;20199;-81
2021/04/06 09:06:40;;;;;;;11.15;3.95;;;4.20;99.90;;;;;;5082530;28;20210;-82
2021/04/06 09:09:09;;;;;;;9.00;3.30;;;4.00;99.90;;;;;;5080816;28;20195;-82
2021/04/06 09:11:37;;;;;;;12.77;3.75;;;4.50;99.90;;;;;;5078231;28;20219;-81
2021/04/06 09:14:04;;;;;;;14.73;3.83;;;4.60;99.90;;;;;;5077480;28;20232;-81
2021/04/06 09:16:33;;;;;;;8.77;3.25;;;4.70;99.90;;;;;;5071674;28;20230;-80
2021/04/06 09:19:01;;;;;;;11.60;4.15;;;4.90;99.90;;;;;;5077451;28;20215;-83
2021/04/06 09:21:29;;;;;;;7.53;2.70;;;4.70;99.90;;;;;;5077587;28;20218;-83
2021/04/06 09:23:58;;;;;;;9.35;3.55;;;4.40;99.90;;;;;;5075562;28;20289;-83
2021/04/06 09:26:26;;;;;;;15.55;3.58;;;4.30;99.90;;;;;;5071385;28;20226;-83
2021/04/06 09:29:01;;;;;;;9.90;3.88;;;4.30;99.90;;;;;;5076011;28;20198;-82
2021/04/06 09:31:29;;;;;;;7.18;2.80;;;4.30;99.90;;;;;;5074783;28;20228;-81
2021/04/06 09:34:06;;;;;;;7.75;4.38;;;4.60;99.90;;;;;;5087390;28;20195;-86
2021/04/06 09:36:34;;;;;;;11.95;3.83;;;4.80;99.90;;;;;;5082431;28;20211;-82
2021/04/06 09:39:03;;;;;;;6.68;3.00;;;5.00;99.90;;;;;;5089064;28;20183;-83
2021/04/06 09:41:34;;;;;;;7.53;3.28;;;5.10;99.90;;;;;;5082977;28;20250;-82
2021/04/06 09:44:02;;;;;;;12.23;3.60;;;4.80;99.90;;;;;;5085780;28;20208;-82
2021/04/06 09:46:37;;;;;;;15.35;4.10;;;4.90;99.90;;;;;;5089266;28;20202;-84
2021/04/06 09:49:05;;;;;;;6.60;2.88;;;5.40;99.90;;;;;;5084179;28;20205;-82
2021/04/06 09:51:32;;;;;;;8.38;3.65;;;5.40;99.90;;;;;;5080274;28;20210;-81
2021/04/06 09:54:01;;;;;;;7.75;3.08;;;5.90;99.90;;;;;;5080256;28;20220;-82
2021/04/06 09:56:29;;;;;;;6.82;2.88;;;6.30;99.90;;;;;;5078432;28;20297;-84
2021/04/06 09:58:57;;;;;;;10.90;5.32;;;5.80;99.90;;;;;;5082550;28;20203;-82
2021/04/06 10:01:26;;;;;;;8.13;3.40;;;5.70;99.90;;;;;;5083276;28;20215;-80
2021/04/06 10:03:56;;;;;;;10.15;4.28;;;5.50;99.90;;;;;;5074835;28;20199;-83
2021/04/06 10:06:35;;;;;;;9.10;2.50;;;5.40;99.90;;;;;;5079749;28;20270;-82
2021/04/06 10:09:18;;;;;;;8.32;3.20;;;5.50;99.90;;;;;;5061998;28;20395;-80
2021/04/06 10:11:45;;;;;;;7.03;3.50;;;5.60;99.90;;;;;;5060918;28;20229;-81
2021/04/06 10:14:13;;;;;;;7.05;3.05;;;5.60;99.90;;;;;;5079817;28;20224;-82
2021/04/06 10:16:42;;;;;;;9.05;2.97;;;5.40;99.90;;;;;;5080937;28;20590;-81
2021/04/06 10:19:19;;;;;;;15.15;4.45;;;5.30;99.90;;;;;;5078712;28;20199;-79
2021/04/06 10:22:04;;;;;;;9.13;3.45;;;5.30;99.90;;;;;;5077188;28;20228;-81
2021/04/06 10:24:35;;;;;;;5.50;3.60;;;5.40;99.90;;;;;;5072282;28;20195;-81
2021/04/06 10:27:08;;;;;;;8.60;3.13;;;5.50;99.90;;;;;;5077926;28;20191;-81
2021/04/06 10:29:36;;;;;;;9.88;3.53;;;5.60;99.90;;;;;;5077710;28;20222;-81
2021/04/06 10:32:04;;;;;;;4.57;2.83;;;5.20;99.90;;;;;;5076540;28;20895;-81
2021/04/06 10:34:32;;;;;;;7.75;3.95;;;3.90;99.90;;;;;;5077028;28;20191;-81
2021/04/06 10:37:02;;;;;;;6.95;3.83;;;3.00;99.90;;;;;;5079789;28;20218;-82
2021/04/06 10:39:34;;;;;;;11.48;3.78;;;2.70;99.90;;;;;;5079054;28;20194;-82
2021/04/06 10:42:01;;;;;;;9.75;5.30;;;2.90;99.90;;;;;;5076262;28;20777;-83
2021/04/06 10:44:29;;;;;;;8.15;4.47;;;3.50;99.90;;;;;;5076682;28;20209;-82
2021/04/06 10:46:58;;;;;;;10.20;3.45;;;3.70;99.90;;;;;;5077285;28;20209;-80
2021/04/06 10:49:25;;;;;;;6.65;3.90;;;4.00;99.90;;;;;;5077627;28;20209;-80
2021/04/06 10:51:54;;;;;;;18.67;4.35;;;4.40;99.90;;;;;;5079353;28;20214;-81
2021/04/06 10:54:21;;;;;;;9.90;3.08;;;4.70;99.90;;;;;;5078820;28;20206;-80
2021/04/06 10:56:50;;;;;;;5.70;3.03;;;5.10;99.90;;;;;;5078364;28;20714;-80
2021/04/06 10:59:27;;;;;;;8.98;3.15;;;5.30;99.90;;;;;;5080007;28;20256;-81
2021/04/06 11:01:54;;;;;;;6.90;2.70;;;5.60;99.90;;;;;;5083282;28;20289;-81
2021/04/06 11:04:24;;;;;;;7.93;2.78;;;5.90;99.90;;;;;;5081329;28;20187;-81
2021/04/06 11:06:57;;;;;;;8.70;3.65;;;6.30;99.90;;;;;;5081252;28;20221;-81
2021/04/06 11:09:25;;;;;;;3.83;2.45;;;6.40;99.90;;;;;;5079598;28;20214;-82
2021/04/06 11:11:54;;;;;;;14.02;2.83;;;6.50;99.90;;;;;;5082461;28;20214;-80
2021/04/06 11:14:22;;;;;;;5.07;2.50;;;6.70;99.90;;;;;;5080094;28;20206;-82
2021/04/06 11:16:49;;;;;;;7.53;3.40;;;6.20;99.90;;;;;;5080488;28;20218;-83
2021/04/06 11:19:18;;;;;;;6.35;2.75;;;5.20;99.90;;;;;;5083481;28;20505;-80
2021/04/06 11:22:01;;;;;;;16.02;10.15;;;4.50;99.90;;;;;;5083738;28;20240;-83
2021/04/06 11:24:29;;;;;;;73.28;37.38;;;4.00;99.90;;;;;;5083303;28;20689;-82
2021/04/06 11:26:57;;;;;;;36.42;20.30;;;4.00;99.90;;;;;;5082468;28;20198;-80
2021/04/06 11:29:28;;;;;;;6.15;5.32;;;4.40;99.90;;;;;;5083281;28;20272;-81
2021/04/06 11:31:57;;;;;;;3.55;2.50;;;5.30;99.90;;;;;;5083213;28;20218;-80
2021/04/06 11:34:24;;;;;;;4.85;3.45;;;6.30;99.90;;;;;;5084656;28;20198;-81
2021/04/06 11:36:52;;;;;;;6.80;5.72;;;6.80;99.90;;;;;;5076060;28;20225;-81
2021/04/06 11:39:21;;;;;;;7.30;3.88;;;6.80;99.90;;;;;;5081325;28;20662;-81
2021/04/06 11:41:48;;;;;;;6.03;2.45;;;6.70;99.90;;;;;;5078418;28;20275;-81
2021/04/06 11:44:16;;;;;;;8.02;3.78;;;6.90;99.90;;;;;;5077254;28;20218;-78
2021/04/06 11:46:42;;;;;;;3.80;2.05;;;7.00;99.90;;;;;;5079760;28;20183;-81
2021/04/06 11:49:11;;;;;;;6.50;2.38;;;7.30;99.90;;;;;;5079304;28;20194;-81
2021/04/06 11:51:39;;;;;;;6.07;2.50;;;7.70;99.90;;;;;;5081042;28;20215;-81
2021/04/06 11:54:08;;;;;;;4.95;2.72;;;8.10;99.90;;;;;;5094620;28;20229;-82
2021/04/06 11:57:16;;;;;;;4.03;2.83;;;8.60;99.90;;;;;;5091039;28;20251;-81
2021/04/06 11:59:44;;;;;;;5.80;1.65;;;8.00;99.90;;;;;;5095462;28;20199;-84
2021/04/06 12:02:13;;;;;;;7.47;2.65;;;7.50;99.90;;;;;;5089148;28;20211;-80
2021/04/06 12:04:40;;;;;;;6.63;2.47;;;7.20;99.90;;;;;;5088211;28;20198;-81
2021/04/06 12:07:07;;;;;;;3.58;1.67;;;7.20;99.90;;;;;;5089774;28;20194;-81
2021/04/06 12:09:35;;;;;;;17.77;2.58;;;6.80;99.90;;;;;;5084172;28;20220;-81
2021/04/06 12:12:02;;;;;;;5.85;2.58;;;6.40;99.90;;;;;;5095762;28;20198;-81
2021/04/06 12:14:29;;;;;;;6.20;2.35;;;6.00;99.90;;;;;;5093774;28;20262;-80
2021/04/06 12:16:56;;;;;;;5.97;1.98;;;5.70;99.90;;;;;;5094927;28;20221;-80
2021/04/06 12:19:22;;;;;;;7.57;2.53;;;6.10;99.90;;;;;;5096468;28;20257;-80
2021/04/06 12:21:49;;;;;;;13.30;3.88;;;6.70;99.90;;;;;;5097371;28;20202;-83
2021/04/06 12:24:16;;;;;;;2.88;1.90;;;7.40;99.90;;;;;;5090945;28;20191;-79
2021/04/06 12:26:44;;;;;;;8.25;2.45;;;7.00;99.90;;;;;;5094679;28;20262;-80
2021/04/06 12:29:11;;;;;;;6.78;2.97;;;6.00;99.90;;;;;;5098371;28;20183;-80
2021/04/06 12:31:38;;;;;;;5.30;2.70;;;5.40;99.90;;;;;;5080422;28;20237;-79
2021/04/06 12:34:05;;;;;;;5.03;2.53;;;5.40;99.90;;;;;;5097977;28;20191;-80
2021/04/06 12:36:32;;;;;;;1.92;1.80;;;5.70;99.90;;;;;;5098625;28;20226;-82
2021/04/06 12:38:58;;;;;;;4.05;2.45;;;5.70;99.90;;;;;;5098497;28;20187;-80
2021/04/06 12:41:25;;;;;;;6.68;2.00;;;5.30;99.90;;;;;;5091978;28;20230;-78
2021/04/06 12:43:52;;;;;;;2.50;2.03;;;4.70;99.90;;;;;;5092300;28;20205;-79
2021/04/06 12:46:19;;;;;;;1.67;1.58;;;4.70;99.90;;;;;;5097796;28;20182;-79
2021/04/06 12:48:45;;;;;;;2.42;1.58;;;4.90;99.90;;;;;;5097726;28;20202;-78
2021/04/06 12:51:12;;;;;;;3.63;2.85;;;5.10;99.90;;;;;;5091001;28;20198;-79
2021/04/06 12:53:38;;;;;;;5.60;2.00;;;5.00;99.90;;;;;;5083184;28;20202;-80
2021/04/06 12:56:05;;;;;;;5.05;2.25;;;4.60;99.90;;;;;;5082765;28;20290;-80
2021/04/06 12:58:32;;;;;;;8.82;2.80;;;3.90;99.90;;;;;;5085886;28;20197;-80
2021/04/06 13:01:00;;;;;;;3.33;2.13;;;3.80;99.90;;;;;;5087689;28;20201;-81
2021/04/06 13:03:27;;;;;;;4.97;1.90;;;3.70;99.90;;;;;;5084294;28;20198;-81
2021/04/06 13:05:53;;;;;;;2.35;2.05;;;3.80;99.90;;;;;;5098254;28;20195;-80
2021/04/06 13:08:21;;;;;;;8.88;2.25;;;3.80;99.90;;;;;;5094516;28;20182;-82
2021/04/06 13:10:50;;;;;;;7.97;2.47;;;4.00;99.90;;;;;;5094379;28;20190;-79